createdAt,value
2019-04-14T00:16:11.831Z,75.82
2019-04-14T00:18:40.693Z,76.39
2019-04-14T00:21:10.785Z,77.17
2019-04-14T00:23:41.173Z,76.84
2019-04-14T00:26:31.548Z,77.92
2019-04-14T00:29:00.884Z,77.63
2019-04-14T00:31:30.740Z,77.00
2019-04-14T00:34:02.898Z,77.49
2019-04-14T00:36:52.310Z,78.06
2019-04-14T00:39:27.661Z,78.69
2019-04-14T00:42:16.884Z,78.69
2019-04-14T00:44:49.574Z,78.78
2019-04-14T00:47:24.718Z,78.81
2019-04-14T00:49:53.673Z,79.31
2019-04-14T00:52:23.411Z,79.79
2019-04-14T00:54:52.418Z,79.79
2019-04-14T00:57:22.393Z,79.88
2019-04-14T00:59:52.997Z,80.18
2019-04-14T01:02:23.219Z,79.80
2019-04-14T01:04:53.439Z,79.33
2019-04-14T01:07:24.028Z,80.20
2019-04-14T01:09:53.212Z,80.23
2019-04-14T01:12:23.426Z,80.76
2019-04-14T01:14:53.767Z,81.25
2019-04-14T01:17:24.373Z,81.17
2019-04-14T01:19:53.330Z,81.90
2019-04-14T01:22:22.788Z,81.83
2019-04-14T01:24:53.179Z,81.66
2019-04-14T01:27:23.563Z,81.88
2019-04-14T01:29:54.502Z,81.99
2019-04-14T01:32:24.064Z,82.00
2019-04-14T01:34:55.235Z,82.13
2019-04-14T01:37:24.769Z,81.99
2019-04-14T01:39:54.600Z,82.08
2019-04-14T01:42:24.567Z,82.28
2019-04-14T01:44:54.538Z,83.00
2019-04-14T01:47:24.670Z,83.27
2019-04-14T01:49:53.796Z,82.85
2019-04-14T01:52:54.417Z,82.42
2019-04-14T01:55:46.251Z,82.92
2019-04-14T01:58:25.150Z,82.82
2019-04-14T02:01:10.543Z,82.52
2019-04-14T02:03:40.887Z,82.65
2019-04-14T02:06:13.656Z,82.85
2019-04-14T02:08:43.677Z,82.70
2019-04-14T02:11:13.696Z,82.38
2019-04-14T02:13:42.750Z,82.52
2019-04-14T02:16:22.973Z,82.30
2019-04-14T02:18:42.740Z,82.83
2019-04-14T02:21:12.819Z,83.05
2019-04-14T02:23:43.222Z,83.18
2019-04-14T02:26:13.232Z,83.75
2019-04-14T02:28:42.212Z,83.52
2019-04-14T02:31:24.793Z,83.50
2019-04-14T02:34:08.194Z,83.23
2019-04-14T02:36:42.910Z,83.48
2019-04-14T02:39:16.989Z,83.71
2019-04-14T02:41:47.309Z,83.85
2019-04-14T02:46:47.893Z,84.19
2019-04-14T02:49:12.421Z,84.07
2019-04-14T02:51:40.111Z,84.10
2019-04-14T02:54:14.272Z,83.97
2019-04-14T02:56:43.372Z,83.81
2019-04-14T02:59:11.285Z,84.50
2019-04-14T03:01:59.520Z,84.13
2019-04-14T03:06:50.419Z,84.05
2019-04-14T03:11:48.885Z,84.67
2019-04-14T03:14:27.746Z,84.99
2019-04-14T03:17:25.368Z,84.63
2019-04-14T03:20:11.268Z,84.48
2019-04-14T03:22:40.573Z,84.33
2019-04-14T03:25:17.100Z,84.94
2019-04-14T03:28:06.851Z,85.23
2019-04-14T03:36:06.411Z,83.58
2019-04-14T03:43:13.668Z,84.37
2019-04-14T03:45:43.252Z,84.05
2019-04-14T03:48:42.828Z,84.18
2019-04-14T03:50:36.901Z,83.37
2019-04-14T03:55:58.821Z,83.90
2019-04-14T03:58:22.621Z,84.51
2019-04-14T04:00:51.644Z,84.29
2019-04-14T04:03:21.803Z,84.33
2019-04-14T04:05:52.071Z,84.78
2019-04-14T04:08:22.255Z,84.29
2019-04-14T04:10:53.162Z,83.96
2019-04-14T04:13:22.197Z,83.71
2019-04-14T04:15:51.976Z,83.02
2019-04-14T04:18:24.145Z,83.16
2019-04-14T04:21:00.924Z,83.47
2019-04-14T04:23:53.284Z,84.70
2019-04-14T04:26:36.493Z,83.27
2019-04-14T04:29:09.689Z,84.08
2019-04-14T04:32:01.394Z,83.51
2019-04-14T04:34:40.171Z,85.00
2019-04-14T04:37:17.226Z,85.27
2019-04-14T04:39:47.573Z,84.91
2019-04-14T04:42:17.682Z,85.09
2019-04-14T04:44:46.670Z,84.63
2019-04-14T04:47:16.584Z,83.48
2019-04-14T04:49:46.891Z,84.58
2019-04-14T04:52:17.199Z,83.78
2019-04-14T04:54:47.429Z,84.50
2019-04-14T04:57:17.821Z,83.59
2019-04-14T04:59:47.430Z,84.09
2019-04-14T05:02:17.617Z,85.02
2019-04-14T05:04:46.578Z,84.02
2019-04-14T05:07:16.692Z,84.88
2019-04-14T05:10:08.854Z,84.76
2019-04-14T05:12:54.447Z,85.13
2019-04-14T05:15:45.049Z,85.23
2019-04-14T05:18:24.691Z,85.38
2019-04-14T05:20:55.240Z,85.43
2019-04-14T05:23:25.628Z,85.22
2019-04-14T05:25:55.960Z,84.90
2019-04-14T05:28:26.579Z,84.45
2019-04-14T05:30:56.759Z,84.32
2019-04-14T05:33:27.068Z,84.05
2019-04-14T05:35:57.331Z,83.40
2019-04-14T05:38:30.273Z,84.28
2019-04-14T05:40:58.250Z,84.14
2019-04-14T05:43:36.751Z,83.59
2019-04-14T05:45:59.136Z,83.54
2019-04-14T05:48:29.274Z,83.39
2019-04-14T05:50:58.399Z,82.71
2019-04-14T05:53:28.331Z,81.94
2019-04-14T05:55:57.185Z,82.16
2019-04-14T05:58:27.233Z,81.31
2019-04-14T06:00:56.451Z,82.02
2019-04-14T06:03:25.656Z,82.37
2019-04-14T06:05:54.811Z,82.57
2019-04-14T06:08:23.762Z,81.50
2019-04-14T06:10:52.755Z,80.80
2019-04-14T06:13:21.710Z,80.78
2019-04-14T06:15:50.810Z,80.37
2019-04-14T06:18:19.772Z,80.14
2019-04-14T06:20:48.762Z,79.92
2019-04-14T06:23:17.784Z,80.09
2019-04-14T06:25:46.744Z,80.03
2019-04-14T06:28:16.755Z,78.42
2019-04-14T06:30:58.673Z,77.75
2019-04-14T06:33:37.639Z,77.75
2019-04-14T06:36:16.998Z,77.41
2019-04-14T06:38:47.927Z,75.90
2019-04-14T06:41:18.819Z,75.73
2019-04-14T06:43:48.936Z,75.17
2019-04-14T06:46:22.960Z,76.88
2019-04-14T06:48:51.976Z,76.59
2019-04-14T06:51:21.163Z,76.86
2019-04-14T06:53:50.123Z,76.40
2019-04-14T06:56:18.998Z,76.50
2019-04-14T06:58:47.989Z,76.78
2019-04-14T07:01:16.951Z,76.68
2019-04-14T07:03:45.934Z,76.81
2019-04-14T07:06:22.412Z,76.73
2019-04-14T07:08:54.003Z,75.34
2019-04-14T07:15:29.215Z,74.41
2019-04-14T07:17:58.628Z,74.21
2019-04-14T07:20:28.121Z,74.01
2019-04-14T07:23:00.264Z,73.36
2019-04-14T07:25:29.522Z,72.72
2019-04-14T07:27:58.453Z,71.34
2019-04-14T07:30:59.672Z,72.91
2019-04-14T07:33:41.115Z,73.21
2019-04-14T07:36:32.175Z,72.85
2019-04-14T07:39:19.497Z,72.17
2019-04-14T07:42:05.009Z,72.67
2019-04-14T07:44:48.000Z,73.17
2019-04-14T07:47:22.441Z,73.96
2019-04-14T07:50:14.749Z,73.81
2019-04-14T07:52:53.486Z,73.23
2019-04-14T07:55:38.523Z,73.62
2019-04-14T07:58:35.927Z,73.25
2019-04-14T08:01:15.212Z,73.50
2019-04-14T08:04:01.770Z,73.02
2019-04-14T08:06:32.307Z,73.13
2019-04-14T08:09:01.659Z,73.09
2019-04-14T08:11:41.555Z,72.96
2019-04-14T08:14:13.923Z,73.35
2019-04-14T08:16:46.032Z,72.58
2019-04-14T08:19:16.788Z,73.77
2019-04-14T08:25:27.500Z,72.97
2019-04-14T08:27:57.526Z,72.17
2019-04-14T08:30:26.661Z,71.56
2019-04-14T08:32:55.675Z,71.57
2019-04-14T08:35:24.802Z,72.01
2019-04-14T08:37:53.888Z,72.26
2019-04-14T08:40:22.922Z,70.94
2019-04-14T08:43:18.393Z,71.79
2019-04-14T08:46:01.426Z,71.83
2019-04-14T08:56:02.491Z,71.51
2019-04-14T08:58:57.168Z,71.90
2019-04-14T09:01:33.758Z,71.92
2019-04-14T09:04:17.168Z,71.69
2019-04-14T09:07:06.998Z,71.54
2019-04-14T09:09:41.973Z,72.04
2019-04-14T09:12:16.062Z,71.96
2019-04-14T09:14:56.409Z,71.85
2019-04-14T09:17:17.543Z,71.20
2019-04-14T09:19:47.065Z,70.35
2019-04-14T09:22:16.331Z,70.07
2019-04-14T09:24:45.470Z,70.07
2019-04-14T09:27:15.229Z,69.92
2019-04-14T09:29:44.424Z,70.45
2019-04-14T09:32:14.041Z,70.68
2019-04-14T09:34:43.045Z,71.32
2019-04-14T09:37:12.280Z,72.15
2019-04-14T09:39:43.926Z,71.99
2019-04-14T09:42:12.746Z,73.19
2019-04-14T09:44:41.543Z,72.49
2019-04-14T09:47:10.338Z,72.10
2019-04-14T09:49:39.337Z,72.26
2019-04-14T09:52:08.408Z,72.37
2019-04-14T09:54:37.274Z,72.14
2019-04-14T09:57:06.346Z,71.75
2019-04-14T09:59:35.394Z,71.83
2019-04-14T10:02:04.782Z,72.04
2019-04-14T10:04:33.697Z,70.96
2019-04-14T10:07:02.888Z,70.32
2019-04-14T10:09:31.941Z,71.78
2019-04-14T10:12:02.067Z,71.93
2019-04-14T10:14:31.028Z,72.75
2019-04-14T10:17:01.432Z,73.12
2019-04-14T10:19:30.851Z,73.97
2019-04-14T10:21:59.767Z,73.59
2019-04-14T10:24:28.800Z,74.48
2019-04-14T10:26:57.797Z,73.77
2019-04-14T10:29:27.489Z,74.78
2019-04-14T10:31:56.507Z,75.93
2019-04-14T10:37:20.306Z,76.20
2019-04-14T10:39:50.416Z,76.45
2019-04-14T10:42:37.029Z,76.92
2019-04-14T10:45:06.446Z,77.30
2019-04-14T10:47:59.300Z,77.91
2019-04-14T10:51:08.470Z,77.35
2019-04-14T10:53:35.784Z,79.57
2019-04-14T10:58:41.278Z,78.94
2019-04-14T11:02:51.495Z,79.46
2019-04-14T11:06:25.616Z,77.41
2019-04-14T11:09:46.720Z,77.50
2019-04-14T11:13:07.486Z,76.09
2019-04-14T11:15:53.022Z,77.54
2019-04-14T11:18:47.403Z,78.03
2019-04-14T11:25:39.956Z,77.98
2019-04-14T11:28:14.007Z,78.25
2019-04-14T11:30:44.167Z,77.72
2019-04-14T11:33:19.081Z,75.74
2019-04-14T11:42:52.206Z,76.85
2019-04-14T11:45:14.959Z,77.54
2019-04-14T11:47:45.476Z,78.20
2019-04-14T11:50:15.961Z,79.14
2019-04-14T11:52:45.495Z,79.57
2019-04-14T11:55:17.103Z,79.07
2019-04-14T11:57:47.902Z,79.35
2019-04-14T12:00:35.210Z,79.44
2019-04-14T12:03:24.897Z,79.46
2019-04-14T12:06:06.625Z,79.66
2019-04-14T12:08:45.571Z,79.30
2019-04-14T12:15:38.943Z,78.54
2019-04-14T12:18:08.447Z,77.63
2019-04-14T12:20:37.979Z,77.77
2019-04-14T12:23:08.066Z,76.89
2019-04-14T12:26:04.700Z,77.39
2019-04-14T12:28:42.916Z,78.02
2019-04-14T12:32:15.092Z,76.54
2019-04-14T12:34:39.166Z,78.60
2019-04-14T12:37:34.224Z,78.16
2019-04-14T12:40:56.286Z,77.86
2019-04-14T12:44:14.592Z,77.22
2019-04-14T12:46:57.210Z,78.23
2019-04-14T12:49:31.425Z,79.55
2019-04-14T12:52:22.176Z,80.76
2019-04-14T12:54:52.023Z,80.90
2019-04-14T12:57:30.658Z,81.38
2019-04-14T13:00:00.514Z,80.61
2019-04-14T13:02:54.898Z,80.55
2019-04-14T13:05:24.204Z,80.00
2019-04-14T13:07:53.443Z,79.54
2019-04-14T13:10:30.001Z,79.19
2019-04-14T13:12:59.177Z,79.67
2019-04-14T13:15:28.732Z,79.63
2019-04-14T13:17:58.947Z,78.70
2019-04-14T13:20:29.244Z,78.54
2019-04-14T13:23:09.760Z,79.43
2019-04-14T13:25:44.195Z,79.93
2019-04-14T13:28:13.524Z,79.64
2019-04-14T13:30:45.170Z,79.50
2019-04-14T13:33:17.132Z,80.26
2019-04-14T13:35:47.095Z,80.20
2019-04-14T13:38:17.872Z,80.01
2019-04-14T13:40:46.756Z,80.29
2019-04-14T13:43:15.606Z,80.72
2019-04-14T13:45:44.635Z,80.52
2019-04-14T13:48:16.435Z,79.96
2019-04-14T13:50:45.333Z,80.80
2019-04-14T13:53:14.201Z,81.43
2019-04-14T13:55:43.566Z,80.99
2019-04-14T13:58:12.950Z,81.08
2019-04-14T14:00:42.017Z,81.03
2019-04-14T14:03:11.098Z,81.21
2019-04-14T14:05:43.370Z,80.66
2019-04-14T14:08:27.025Z,80.16
2019-04-14T14:11:09.850Z,80.73
2019-04-14T14:14:13.555Z,80.94
2019-04-14T14:16:57.569Z,80.23
2019-04-14T14:19:43.928Z,80.49
2019-04-14T14:22:16.787Z,79.69
2019-04-14T14:25:00.464Z,79.41
2019-04-14T14:27:29.290Z,79.39
2019-04-14T14:29:58.336Z,79.56
2019-04-14T14:32:35.382Z,79.69
2019-04-14T14:35:05.831Z,79.46
2019-04-14T14:37:35.167Z,78.91
2019-04-14T14:40:25.300Z,79.13
2019-04-14T14:42:44.683Z,79.01
2019-04-14T14:45:31.890Z,78.29
2019-04-14T14:48:15.956Z,77.88
2019-04-14T14:51:00.151Z,78.20
2019-04-14T14:53:29.910Z,78.42
2019-04-14T14:56:00.021Z,78.09
2019-04-14T14:58:28.958Z,78.54
2019-04-14T15:00:57.973Z,79.46
2019-04-14T15:03:27.226Z,79.88
2019-04-14T15:05:56.878Z,80.02
2019-04-14T15:08:25.844Z,80.04
2019-04-14T15:11:04.187Z,79.98
2019-04-14T15:13:36.092Z,80.32
2019-04-14T15:16:05.485Z,80.33
2019-04-14T15:18:37.461Z,80.24
2019-04-14T15:21:06.863Z,79.65
2019-04-14T15:23:36.916Z,79.62
2019-04-14T15:26:05.994Z,79.35
2019-04-14T15:28:35.446Z,79.18
2019-04-14T15:31:06.534Z,79.68
2019-04-14T15:33:35.668Z,79.09
2019-04-14T15:36:04.953Z,79.25
2019-04-14T15:38:34.990Z,79.32
2019-04-14T15:41:04.682Z,79.29
2019-04-14T15:43:33.776Z,79.04
2019-04-14T15:46:04.120Z,78.96
2019-04-14T15:48:33.101Z,79.18
2019-04-14T15:51:02.291Z,78.83
2019-04-14T15:53:37.924Z,78.37
2019-04-14T15:56:02.056Z,78.09
2019-04-14T15:58:55.315Z,78.03
2019-04-14T16:01:34.142Z,77.53
2019-04-14T16:04:08.709Z,78.78
2019-04-14T16:06:56.713Z,78.00
2019-04-14T16:09:43.369Z,77.05
2019-04-14T16:12:26.316Z,77.53
2019-04-14T16:15:06.965Z,76.86
2019-04-14T16:17:59.743Z,76.72
2019-04-14T16:20:33.823Z,76.34
2019-04-14T16:23:05.210Z,76.24
2019-04-14T16:25:41.757Z,75.76
2019-04-14T16:28:16.507Z,75.95
2019-04-14T16:31:03.633Z,76.20
2019-04-14T16:33:50.432Z,76.25
2019-04-14T16:36:20.271Z,76.52
2019-04-14T16:38:49.260Z,76.68
2019-04-14T16:41:24.850Z,76.47
2019-04-14T16:43:53.831Z,76.42
2019-04-14T16:46:22.762Z,76.10
2019-04-14T16:48:52.852Z,76.13
2019-04-14T16:51:26.938Z,76.24
2019-04-14T16:54:02.902Z,76.44
2019-04-14T16:56:48.853Z,76.21
2019-04-14T16:59:17.834Z,76.21
2019-04-14T17:01:48.332Z,76.53
2019-04-14T17:04:17.230Z,76.38
2019-04-14T17:06:46.145Z,76.52
2019-04-14T17:09:15.133Z,76.81
2019-04-14T17:11:43.921Z,76.82
2019-04-14T17:14:20.112Z,76.98
2019-04-14T17:17:07.829Z,77.23
2019-04-14T17:19:57.170Z,77.40
2019-04-14T17:22:35.715Z,77.45
2019-04-14T17:25:33.410Z,77.75
2019-04-14T17:28:19.776Z,78.29
2019-04-14T17:31:07.607Z,78.12
2019-04-14T17:33:44.614Z,78.29
2019-04-14T17:36:35.020Z,78.33
2019-04-14T17:39:31.780Z,77.83
2019-04-14T17:42:19.236Z,79.04
2019-04-14T17:45:01.495Z,79.17
2019-04-14T17:48:04.669Z,79.14
2019-04-14T17:51:10.806Z,79.10
2019-04-14T17:53:59.063Z,79.70
2019-04-14T17:56:35.512Z,79.95
2019-04-14T17:59:35.536Z,79.50
2019-04-14T18:02:17.607Z,79.91
2019-04-14T18:05:05.795Z,80.38
2019-04-14T18:07:48.823Z,80.16
2019-04-14T18:10:34.797Z,80.44
2019-04-14T18:13:13.517Z,80.79
2019-04-14T18:15:50.675Z,80.77
2019-04-14T18:18:31.015Z,81.09
2019-04-14T18:21:03.199Z,81.15
2019-04-14T18:23:32.287Z,80.93
2019-04-14T18:26:01.246Z,80.85
2019-04-14T18:28:48.237Z,81.39
2019-04-14T18:31:39.263Z,81.46
2019-04-14T18:34:18.988Z,81.24
2019-04-14T18:36:58.631Z,81.75
2019-04-14T18:39:49.785Z,81.50
2019-04-14T18:42:22.879Z,81.40
2019-04-14T18:45:09.758Z,81.03
2019-04-14T18:47:46.532Z,81.07
2019-04-14T18:50:24.004Z,80.94
2019-04-14T18:53:01.033Z,80.75
2019-04-14T18:55:55.402Z,80.78
2019-04-14T18:58:38.314Z,80.67
2019-04-14T19:01:16.358Z,80.63
2019-04-14T19:03:46.274Z,80.62
2019-04-14T19:06:15.398Z,80.50
2019-04-14T19:08:44.348Z,79.83
2019-04-14T19:11:32.414Z,80.08
2019-04-14T19:14:01.567Z,80.26
2019-04-14T19:16:43.459Z,79.88
2019-04-14T19:19:12.400Z,79.75
2019-04-14T19:21:41.270Z,79.65
2019-04-14T19:24:10.615Z,79.65
2019-04-14T19:26:39.890Z,79.45
2019-04-14T19:29:08.814Z,79.05
2019-04-14T19:31:38.063Z,78.63
2019-04-14T19:34:07.963Z,78.53
2019-04-14T19:36:36.823Z,78.08
2019-04-14T19:39:09.650Z,77.88
2019-04-14T19:41:39.792Z,78.13
2019-04-14T19:44:09.304Z,77.76
2019-04-14T19:46:44.801Z,78.06
2019-04-14T19:49:13.781Z,78.21
2019-04-14T19:51:42.746Z,78.14
2019-04-14T19:54:11.642Z,78.07
2019-04-14T19:56:43.500Z,77.55
2019-04-14T19:59:12.290Z,77.57
2019-04-14T20:01:41.718Z,77.93
2019-04-14T20:04:10.783Z,77.54
2019-04-14T20:06:39.641Z,77.64
2019-04-14T20:09:08.585Z,76.97
2019-04-14T20:11:37.476Z,76.87
2019-04-14T20:14:06.382Z,76.66
2019-04-14T20:16:48.135Z,76.40
2019-04-14T20:19:39.346Z,76.21
2019-04-14T20:22:30.402Z,75.49
2019-04-14T20:25:34.208Z,75.32
2019-04-14T20:28:10.958Z,74.26
2019-04-14T20:31:04.249Z,73.66
2019-04-14T20:33:33.122Z,73.40
2019-04-14T20:36:05.154Z,72.25
2019-04-14T20:38:32.649Z,71.71
2019-04-14T20:41:01.834Z,71.23
2019-04-14T20:43:31.178Z,70.38
2019-04-14T20:46:00.199Z,69.06
2019-04-14T20:48:29.438Z,67.89
2019-04-14T20:50:58.887Z,67.26
2019-04-14T20:53:27.947Z,66.99
2019-04-14T20:55:56.802Z,67.16
2019-04-14T20:58:25.947Z,65.16
2019-04-14T21:00:55.238Z,65.45
2019-04-14T21:03:35.179Z,65.74
2019-04-14T21:06:35.126Z,63.72
2019-04-14T21:09:17.113Z,63.33
2019-04-14T21:12:05.125Z,63.15
2019-04-14T21:14:43.985Z,63.38
2019-04-14T21:17:31.780Z,63.11
2019-04-14T21:20:22.684Z,62.84
2019-04-14T21:22:58.671Z,63.27
2019-04-14T21:25:36.061Z,63.97
2019-04-14T21:28:37.238Z,63.58
2019-04-14T21:31:24.055Z,65.18
2019-04-14T21:34:02.610Z,65.07
2019-04-14T21:36:39.879Z,64.22
2019-04-14T21:39:26.528Z,65.00
2019-04-14T21:41:55.346Z,66.42
2019-04-14T21:44:24.313Z,66.29
2019-04-14T21:46:53.152Z,66.14
2019-04-14T21:49:22.159Z,65.42
2019-04-14T21:52:01.752Z,65.14
2019-04-14T21:54:30.754Z,66.67
2019-04-14T21:57:24.612Z,66.21
2019-04-14T22:00:08.713Z,65.58
2019-04-14T22:02:55.559Z,65.63
2019-04-14T22:05:41.192Z,66.17
2019-04-14T22:08:17.162Z,66.41
2019-04-14T22:10:55.387Z,67.26
2019-04-14T22:13:24.316Z,68.13
2019-04-14T22:15:56.467Z,68.62
2019-04-14T22:18:25.440Z,68.99
2019-04-14T22:20:54.471Z,68.81
2019-04-14T22:23:23.507Z,69.01
2019-04-14T22:26:47.239Z,68.94
2019-04-14T22:29:16.066Z,68.36
2019-04-14T22:31:45.117Z,67.68
2019-04-14T22:34:14.136Z,67.67
2019-04-14T22:36:43.017Z,67.87
2019-04-14T22:39:15.112Z,67.21
2019-04-14T22:41:45.929Z,67.31
2019-04-14T22:44:15.095Z,66.55
2019-04-14T22:46:43.983Z,66.71
2019-04-14T22:49:12.892Z,66.29
2019-04-14T22:51:41.828Z,65.78
2019-04-14T22:54:11.016Z,65.28
2019-04-14T22:56:39.997Z,64.87
2019-04-14T22:59:09.235Z,65.49
2019-04-14T23:01:41.309Z,64.66
2019-04-14T23:04:20.500Z,64.07
2019-04-14T23:07:14.457Z,64.15
2019-04-14T23:09:51.192Z,64.17
2019-04-14T23:12:45.089Z,64.09
2019-04-14T23:15:33.730Z,63.75
2019-04-14T23:18:13.914Z,64.50
2019-04-14T23:21:00.746Z,63.97
2019-04-14T23:23:58.310Z,63.63
2019-04-14T23:26:27.129Z,64.10
2019-04-14T23:28:56.109Z,64.35
2019-04-14T23:31:24.897Z,63.92
2019-04-14T23:33:53.723Z,63.71
2019-04-14T23:36:22.569Z,64.16
2019-04-14T23:38:51.652Z,64.03
2019-04-14T23:41:20.595Z,63.75
2019-04-14T23:43:49.424Z,63.71
2019-04-14T23:46:18.306Z,63.98
2019-04-14T23:48:47.266Z,63.74
2019-04-14T23:51:16.305Z,63.86
2019-04-14T23:53:45.212Z,64.06
2019-04-14T23:56:14.080Z,64.29
2019-04-14T23:58:43.039Z,64.01
